Terminal Aerodrome Forecast
Issued by NWS Wakefield, VA

Home | Current Version | Previous Version | Text Only | Print | Product List | Glossary On
Versions: 1 2 3 4 5 6 7 8 9 10 11 12 13 14
000
FTUS41 KAKQ 051003 AAB
TAFORF
TAF AMD
KORF 051003Z 0510/0606 VRB03KT 4SM -RADZ BR SCT003 OVC020
      TEMPO 0510/0512 BKN004 OVC012
     FM051400 35005KT P6SM VCSH SCT007 OVC020
     FM051700 36007KT P6SM BKN040
     FM052000 34009KT P6SM BKN250=

USA.gov is the U.S. government's official web portal to all federal, state and local government web resources and services.